Time;durP1;ratioP1;P1;durP2;ratioP2;P2;SDS_P1;SDS_P2;PMS_P1;PMS_P2;Temp;Humidity;BMP_temperature;BMP_pressure;BME280_temperature;BME280_humidity;BME280_pressure;Samples;Min_cycle;Max_cycle;Signal;HPM_P1;HPM_P2
2022/07/19 00:01:20;;;;;;;3.73;3.37;;;18.90;96.00;;;;;;5049843;28;20954;-69
2022/07/19 00:03:47;;;;;;;3.60;3.30;;;18.80;96.00;;;;;;5050261;28;20974;-69
2022/07/19 00:06:13;;;;;;;3.60;3.10;;;18.80;96.10;;;;;;5050296;28;20471;-69
2022/07/19 00:08:40;;;;;;;4.40;3.00;;;18.70;96.10;;;;;;5050281;28;20455;-68
2022/07/19 00:11:07;;;;;;;3.40;3.10;;;18.70;96.30;;;;;;5049452;28;20467;-69
2022/07/19 00:13:34;;;;;;;4.60;3.37;;;18.70;96.40;;;;;;5050368;28;20947;-69
2022/07/19 00:16:00;;;;;;;3.43;2.83;;;18.60;96.40;;;;;;5049995;28;20519;-70
2022/07/19 00:18:28;;;;;;;3.83;2.90;;;18.60;96.50;;;;;;5050020;28;20463;-70
2022/07/19 00:20:55;;;;;;;3.33;3.00;;;18.60;96.50;;;;;;5049520;28;20844;-71
2022/07/19 00:23:22;;;;;;;3.80;3.50;;;18.60;96.70;;;;;;5050229;28;20455;-70
2022/07/19 00:25:48;;;;;;;4.63;3.30;;;18.50;96.80;;;;;;5050071;28;20475;-71
2022/07/19 00:28:15;;;;;;;3.60;2.97;;;18.50;96.90;;;;;;5049774;28;20459;-71
2022/07/19 00:30:42;;;;;;;4.40;3.50;;;18.50;97.10;;;;;;5049492;28;20464;-71
2022/07/19 00:33:09;;;;;;;5.17;3.40;;;18.40;97.10;;;;;;5052968;28;20474;-71
2022/07/19 00:35:38;;;;;;;3.70;3.03;;;18.40;97.20;;;;;;5053608;28;20519;-70
2022/07/19 00:38:06;;;;;;;4.83;2.87;;;18.30;97.20;;;;;;5053856;28;20470;-68
2022/07/19 00:40:32;;;;;;;4.40;3.17;;;18.30;97.20;;;;;;5053290;28;20531;-68
2022/07/19 00:42:59;;;;;;;3.50;3.20;;;18.30;97.40;;;;;;5053816;28;20466;-69
2022/07/19 00:45:27;;;;;;;3.30;3.00;;;18.30;97.60;;;;;;5053531;28;20823;-72
2022/07/19 00:47:54;;;;;;;3.67;3.33;;;18.20;97.60;;;;;;5053569;28;20470;-70
2022/07/19 00:50:21;;;;;;;4.13;3.17;;;18.20;97.70;;;;;;5052788;28;20951;-70
2022/07/19 00:52:51;;;;;;;3.70;3.40;;;18.10;97.70;;;;;;5053523;28;20524;-69
2022/07/19 00:55:19;;;;;;;4.10;3.77;;;18.10;97.90;;;;;;5053315;28;21021;-69
2022/07/19 00:57:47;;;;;;;3.57;3.27;;;18.00;97.80;;;;;;5053442;28;20474;-70
2022/07/19 01:00:16;;;;;;;3.33;3.10;;;18.00;97.80;;;;;;5052860;28;20463;-70
2022/07/19 01:02:43;;;;;;;3.37;3.07;;;18.00;97.80;;;;;;5053335;28;20549;-69
2022/07/19 01:05:11;;;;;;;3.37;3.07;;;17.90;97.70;;;;;;5053327;28;20471;-70
2022/07/19 01:07:41;;;;;;;3.87;2.93;;;17.90;97.80;;;;;;5053022;28;20471;-69
2022/07/19 01:10:11;;;;;;;3.30;3.03;;;17.90;97.60;;;;;;5052814;28;20463;-70
2022/07/19 01:12:38;;;;;;;3.10;2.90;;;17.80;97.60;;;;;;5052974;28;21174;-70
2022/07/19 01:15:14;;;;;;;3.70;3.27;;;17.80;97.70;;;;;;5053076;28;20535;-70
2022/07/19 01:17:41;;;;;;;3.40;3.10;;;17.80;97.80;;;;;;5052869;28;20463;-69
2022/07/19 01:20:09;;;;;;;3.60;2.97;;;17.80;98.00;;;;;;5052495;28;20460;-70
2022/07/19 01:22:37;;;;;;;3.50;3.20;;;17.80;97.70;;;;;;5052802;28;20475;-70
2022/07/19 01:25:05;;;;;;;2.60;2.40;;;17.70;97.80;;;;;;5053004;28;20486;-70
2022/07/19 01:27:32;;;;;;;4.83;3.23;;;17.70;97.90;;;;;;5052779;28;20459;-69
2022/07/19 01:29:59;;;;;;;3.93;3.10;;;17.70;97.80;;;;;;5052145;28;20463;-70
2022/07/19 01:32:25;;;;;;;3.47;3.17;;;17.70;97.70;;;;;;5052643;28;20486;-68
2022/07/19 01:34:52;;;;;;;3.10;2.80;;;17.70;97.90;;;;;;5052250;28;20493;-70
2022/07/19 01:37:19;;;;;;;3.57;3.27;;;17.60;97.80;;;;;;5052924;28;20897;-70
2022/07/19 01:39:47;;;;;;;4.03;3.33;;;17.60;98.10;;;;;;5051796;28;20468;-70
2022/07/19 01:42:13;;;;;;;3.70;3.40;;;17.60;98.30;;;;;;5052323;28;20471;-70
2022/07/19 01:44:40;;;;;;;4.23;3.30;;;17.60;98.40;;;;;;5052226;28;20467;-70
2022/07/19 01:47:07;;;;;;;3.60;3.30;;;17.50;98.30;;;;;;5052759;28;20466;-69
2022/07/19 01:49:33;;;;;;;3.90;3.50;;;17.50;98.30;;;;;;5051830;28;20455;-69
2022/07/19 01:52:00;;;;;;;4.77;3.00;;;17.50;98.30;;;;;;5052117;28;20463;-69
2022/07/19 01:54:27;;;;;;;3.43;3.13;;;17.40;98.30;;;;;;5052325;28;20934;-67
2022/07/19 01:56:55;;;;;;;3.53;3.23;;;17.40;98.50;;;;;;5052093;28;20466;-69
2022/07/19 01:59:21;;;;;;;3.00;2.70;;;17.40;98.80;;;;;;5051829;28;20542;-69
2022/07/19 02:01:48;;;;;;;3.33;3.03;;;17.40;98.90;;;;;;5052007;28;20463;-69
2022/07/19 02:04:15;;;;;;;4.90;3.37;;;17.40;98.90;;;;;;5052300;28;20460;-70
2022/07/19 02:06:42;;;;;;;3.80;3.30;;;17.30;98.80;;;;;;5051855;28;21053;-68
2022/07/19 02:09:08;;;;;;;3.33;2.93;;;17.30;98.80;;;;;;5051849;28;20460;-70
2022/07/19 02:11:38;;;;;;;3.40;3.10;;;17.30;98.70;;;;;;5051841;28;20470;-69
2022/07/19 02:14:08;;;;;;;3.57;3.27;;;17.30;98.90;;;;;;5052029;28;20464;-69
2022/07/19 02:16:35;;;;;;;4.30;3.00;;;17.30;98.90;;;;;;5051921;28;20869;-69
2022/07/19 02:19:03;;;;;;;3.60;3.30;;;17.20;98.90;;;;;;5051800;28;20470;-70
2022/07/19 02:21:29;;;;;;;3.60;3.30;;;17.20;98.80;;;;;;5051715;28;20532;-69
2022/07/19 02:23:56;;;;;;;3.20;3.00;;;17.20;98.90;;;;;;5051653;28;20841;-69
2022/07/19 02:26:24;;;;;;;3.73;3.07;;;17.10;98.80;;;;;;5051874;28;20479;-68
2022/07/19 02:28:51;;;;;;;3.80;3.10;;;17.10;98.80;;;;;;5051184;28;20471;-70
2022/07/19 02:31:19;;;;;;;3.43;3.13;;;17.10;99.00;;;;;;5051378;28;20491;-70
2022/07/19 02:33:47;;;;;;;3.70;3.07;;;17.10;99.30;;;;;;5090107;22;20506;-93
2022/07/19 02:36:14;;;;;;;3.30;3.00;;;17.10;99.10;;;;;;5058152;28;20570;-93
2022/07/19 02:38:41;;;;;;;2.90;2.70;;;17.00;99.00;;;;;;5058456;28;20451;-93
2022/07/19 02:41:08;;;;;;;3.40;3.10;;;17.00;99.10;;;;;;5058670;28;20463;-93
2022/07/19 02:43:34;;;;;;;3.40;2.83;;;17.00;99.20;;;;;;5058730;28;20479;-93
2022/07/19 02:46:01;;;;;;;4.47;3.20;;;17.00;99.10;;;;;;5058868;28;20483;-94
2022/07/19 02:48:30;;;;;;;4.57;2.90;;;16.90;99.10;;;;;;5058327;28;20840;-94
2022/07/19 02:50:56;;;;;;;3.93;3.63;;;16.90;99.20;;;;;;5057696;28;20859;-93
2022/07/19 02:53:23;;;;;;;3.30;3.00;;;16.90;99.20;;;;;;5058406;28;20470;-94
2022/07/19 02:55:50;;;;;;;3.77;3.47;;;16.80;99.20;;;;;;5057126;28;20477;-93
2022/07/19 02:58:17;;;;;;;3.70;3.40;;;16.80;99.50;;;;;;5057825;28;20837;-93
2022/07/19 03:00:44;;;;;;;3.80;3.03;;;16.80;99.60;;;;;;5058133;28;20974;-93
2022/07/19 03:05:58;;;;;;;3.60;3.30;;;16.70;99.40;;;;;;5059750;28;20458;-94
2022/07/19 03:08:25;;;;;;;3.77;3.23;;;16.70;99.50;;;;;;5059788;28;20459;-93
2022/07/19 03:10:51;;;;;;;2.90;2.70;;;16.70;99.50;;;;;;5057907;28;20472;-94
2022/07/19 03:13:18;;;;;;;3.70;3.40;;;16.70;99.50;;;;;;5057450;28;20944;-93
2022/07/19 03:15:45;;;;;;;3.00;2.80;;;16.70;99.60;;;;;;5057791;28;20582;-93
2022/07/19 03:18:12;;;;;;;4.13;3.27;;;16.60;99.60;;;;;;5056964;28;20561;-94
2022/07/19 03:20:39;;;;;;;2.87;2.67;;;16.60;99.50;;;;;;5057187;28;20948;-94
2022/07/19 03:23:07;;;;;;;3.20;2.90;;;16.60;99.60;;;;;;5058131;28;20562;-93
2022/07/19 03:25:35;;;;;;;3.67;3.20;;;16.50;99.50;;;;;;5059169;28;20456;-94
2022/07/19 03:28:02;;;;;;;3.33;3.03;;;16.50;99.60;;;;;;5059072;28;20538;-94
2022/07/19 03:33:15;;;;;;;3.47;2.87;;;16.50;99.80;;;;;;5053108;28;20813;-93
2022/07/19 03:35:42;;;;;;;3.30;3.00;;;16.50;99.90;;;;;;5053237;28;20510;-93
2022/07/19 03:38:11;;;;;;;2.97;2.67;;;16.50;99.80;;;;;;5045449;28;20455;-93
2022/07/19 03:40:38;;;;;;;3.20;2.90;;;16.50;99.70;;;;;;5046353;28;20460;-92
2022/07/19 03:43:05;;;;;;;4.40;3.37;;;16.40;99.80;;;;;;5048644;28;20494;-92
2022/07/19 03:45:32;;;;;;;4.23;3.43;;;16.40;99.90;;;;;;5060151;28;20454;-95
2022/07/19 03:48:01;;;;;;;5.70;3.07;;;16.40;99.90;;;;;;5055928;28;21009;-91
2022/07/19 03:50:29;;;;;;;4.00;3.43;;;16.40;99.90;;;;;;5068968;28;20460;-94
2022/07/19 03:55:38;;;;;;;3.90;3.20;;;16.30;99.90;;;;;;5056084;28;20467;-94
2022/07/19 03:58:05;;;;;;;3.90;3.50;;;16.30;99.90;;;;;;5051379;28;20459;-94
2022/07/19 04:00:32;;;;;;;3.70;3.30;;;16.20;99.90;;;;;;5057728;28;20530;-93
2022/07/19 04:02:59;;;;;;;3.30;3.00;;;16.20;99.90;;;;;;5057215;28;20464;-94
2022/07/19 04:05:26;;;;;;;3.83;3.37;;;16.20;99.90;;;;;;5058358;28;20547;-95
2022/07/19 04:08:04;;;;;;;4.27;3.30;;;16.20;99.90;;;;;;5059874;28;20485;-94
2022/07/19 04:10:31;;;;;;;3.97;3.60;;;16.10;99.90;;;;;;5054564;28;20483;-93
2022/07/19 04:13:00;;;;;;;4.43;4.03;;;16.20;99.90;;;;;;5048535;28;20465;-93
2022/07/19 04:15:27;;;;;;;3.97;3.57;;;16.10;99.90;;;;;;5041548;28;20511;-93
2022/07/19 04:17:54;;;;;;;4.17;3.47;;;16.20;99.90;;;;;;5044145;28;20468;-94
2022/07/19 04:20:21;;;;;;;3.80;3.40;;;16.20;99.90;;;;;;5039080;28;20956;-94
2022/07/19 04:22:48;;;;;;;4.87;3.70;;;16.10;99.90;;;;;;5039927;28;20464;-93
2022/07/19 04:25:27;;;;;;;3.60;3.20;;;16.20;99.90;;;;;;5039583;28;20558;-93
2022/07/19 04:28:02;;;;;;;6.83;3.60;;;16.20;99.90;;;;;;5043847;28;20455;-93
2022/07/19 04:30:29;;;;;;;5.10;3.57;;;16.20;99.90;;;;;;5059814;28;20497;-93
2022/07/19 04:32:56;;;;;;;3.23;2.93;;;16.20;99.90;;;;;;5060957;28;20467;-93
2022/07/19 04:35:23;;;;;;;3.33;3.03;;;16.30;99.90;;;;;;5059299;28;20845;-93
2022/07/19 04:37:49;;;;;;;3.33;3.03;;;16.30;99.90;;;;;;5059444;28;20948;-93
2022/07/19 04:40:16;;;;;;;5.90;3.50;;;16.30;99.90;;;;;;5059648;28;20499;-93
2022/07/19 04:42:43;;;;;;;3.63;3.30;;;16.30;99.90;;;;;;5060399;28;20538;-92
2022/07/19 04:45:12;;;;;;;3.70;3.30;;;16.40;99.90;;;;;;5060644;28;20486;-93
2022/07/19 04:47:48;;;;;;;4.00;3.53;;;16.40;99.90;;;;;;5060506;28;20455;-93
2022/07/19 04:50:19;;;;;;;4.63;3.57;;;16.40;99.90;;;;;;5059234;28;20557;-93
2022/07/19 04:53:03;;;;;;;4.20;3.40;;;16.40;99.90;;;;;;5058968;28;20498;-93
2022/07/19 04:55:30;;;;;;;3.43;3.13;;;16.50;99.90;;;;;;5057382;28;20955;-93
2022/07/19 04:57:57;;;;;;;4.00;3.63;;;16.60;99.90;;;;;;5060258;28;20542;-93
2022/07/19 05:00:28;;;;;;;4.77;3.50;;;16.60;99.90;;;;;;5060244;28;20459;-92
2022/07/19 05:02:55;;;;;;;5.13;3.37;;;16.70;99.90;;;;;;5059558;28;20501;-93
2022/07/19 05:05:23;;;;;;;4.63;3.10;;;16.80;99.90;;;;;;5058053;28;20483;-92
2022/07/19 05:07:50;;;;;;;4.70;3.40;;;16.80;99.90;;;;;;5068527;28;20491;-93
2022/07/19 05:10:17;;;;;;;4.77;3.40;;;16.90;99.90;;;;;;5072763;28;20466;-93
2022/07/19 05:12:44;;;;;;;3.30;3.00;;;17.00;99.90;;;;;;5063387;28;20466;-92
2022/07/19 05:15:12;;;;;;;4.60;3.57;;;17.10;99.90;;;;;;5076680;28;20487;-94
2022/07/19 05:17:40;;;;;;;4.10;3.67;;;17.10;99.90;;;;;;5076017;28;20507;-94
2022/07/19 05:20:08;;;;;;;4.80;3.40;;;17.20;99.90;;;;;;5077549;28;20487;-92
2022/07/19 05:22:36;;;;;;;4.27;3.40;;;17.30;99.90;;;;;;5079178;28;20517;-94
2022/07/19 05:25:02;;;;;;;6.17;3.13;;;17.30;99.90;;;;;;5063936;28;20475;-93
2022/07/19 05:27:29;;;;;;;5.33;3.70;;;17.30;99.90;;;;;;5068314;28;20970;-93
2022/07/19 05:29:56;;;;;;;4.50;3.30;;;17.50;99.90;;;;;;5068279;28;20486;-93
2022/07/19 05:32:23;;;;;;;3.13;2.83;;;17.50;99.90;;;;;;5072853;28;20978;-93
2022/07/19 05:34:52;;;;;;;3.60;3.10;;;17.60;99.90;;;;;;5068330;28;20590;-93
2022/07/19 05:37:19;;;;;;;3.60;3.30;;;17.70;99.90;;;;;;5064081;28;20507;-93
2022/07/19 05:39:46;;;;;;;4.80;3.40;;;17.80;99.90;;;;;;5049804;28;20468;-94
2022/07/19 05:42:12;;;;;;;3.90;3.50;;;17.90;99.90;;;;;;5053650;28;20530;-94
2022/07/19 05:44:39;;;;;;;5.83;3.53;;;18.00;99.90;;;;;;5044619;28;21076;-92
2022/07/19 05:47:09;;;;;;;3.57;3.27;;;18.10;99.90;;;;;;5050320;28;20460;-94
2022/07/19 05:49:36;;;;;;;3.47;3.17;;;18.20;99.90;;;;;;5052992;28;20906;-94
2022/07/19 05:52:06;;;;;;;4.13;3.50;;;18.30;99.90;;;;;;5051414;28;20460;-94
2022/07/19 05:54:32;;;;;;;4.30;3.90;;;18.40;99.90;;;;;;5052813;28;20739;-94
2022/07/19 05:57:00;;;;;;;5.10;3.70;;;18.50;99.90;;;;;;5051105;28;20479;-93
2022/07/19 05:59:27;;;;;;;5.30;4.03;;;18.60;99.90;;;;;;5049708;28;20564;-94
2022/07/19 06:02:28;;;;;;;6.40;4.60;;;18.80;99.90;;;;;;5048615;28;20492;-94
2022/07/19 06:07:38;;;;;;;5.57;3.97;;;19.10;99.90;;;;;;5015757;28;20480;-93
2022/07/19 06:10:06;;;;;;;5.83;3.97;;;19.30;99.90;;;;;;5028286;28;20522;-93
2022/07/19 06:12:32;;;;;;;4.67;3.90;;;19.50;99.90;;;;;;5038884;28;20532;-93
2022/07/19 06:14:59;;;;;;;4.90;4.40;;;19.60;99.90;;;;;;5038445;28;20476;-94
2022/07/19 06:17:26;;;;;;;5.70;4.57;;;19.70;99.90;;;;;;5038045;28;20495;-95
2022/07/19 06:20:10;;;;;;;6.00;4.40;;;19.90;99.90;;;;;;5038778;28;20460;-94
2022/07/19 06:22:39;;;;;;;5.13;3.63;;;20.00;99.90;;;;;;5039574;28;20535;-94
2022/07/19 06:25:07;;;;;;;5.17;3.90;;;20.20;99.90;;;;;;5043013;28;20563;-94
2022/07/19 06:27:34;;;;;;;4.50;4.10;;;20.40;99.90;;;;;;5038283;28;20519;-93
2022/07/19 06:30:02;;;;;;;4.17;3.77;;;20.50;99.90;;;;;;5035940;28;20464;-93
2022/07/19 06:32:29;;;;;;;4.23;3.80;;;20.70;99.90;;;;;;5036943;28;20530;-93
2022/07/19 06:34:56;;;;;;;6.17;3.93;;;20.90;99.90;;;;;;5036705;28;21004;-93
2022/07/19 06:37:22;;;;;;;4.57;3.77;;;21.00;99.90;;;;;;5037070;28;20813;-94
2022/07/19 06:39:51;;;;;;;9.13;4.50;;;21.10;99.90;;;;;;5038519;28;20495;-94
2022/07/19 06:42:18;;;;;;;4.73;4.10;;;21.30;99.10;;;;;;5040472;28;20470;-95
2022/07/19 06:44:44;;;;;;;4.17;3.53;;;21.50;99.00;;;;;;5038111;28;20485;-93
2022/07/19 06:47:11;;;;;;;5.47;3.60;;;21.70;98.10;;;;;;5036751;28;20519;-93
2022/07/19 06:49:38;;;;;;;4.13;3.33;;;21.80;97.90;;;;;;5036267;28;20560;-93
2022/07/19 06:52:05;;;;;;;4.77;2.70;;;22.00;97.60;;;;;;5036953;28;20457;-93
2022/07/19 06:54:32;;;;;;;6.73;3.73;;;22.10;95.40;;;;;;5035887;28;20469;-93
2022/07/19 06:57:01;;;;;;;5.57;3.10;;;22.30;96.30;;;;;;5036689;28;20457;-95
2022/07/19 06:59:28;;;;;;;6.47;3.23;;;22.40;95.20;;;;;;5039511;28;20471;-92
2022/07/19 07:01:55;;;;;;;3.50;3.00;;;22.60;94.00;;;;;;5044172;28;20551;-92
2022/07/19 07:04:22;;;;;;;7.40;3.23;;;22.70;93.40;;;;;;5044999;28;20494;-93
2022/07/19 07:06:48;;;;;;;6.10;2.97;;;22.90;93.30;;;;;;5048898;28;20559;-93
2022/07/19 07:09:15;;;;;;;6.90;4.00;;;23.00;93.60;;;;;;5049502;28;20440;-96
2022/07/19 07:15:06;;;;;;;5.87;2.97;;;23.30;93.40;;;;;;5049285;28;20512;-92
2022/07/19 07:17:33;;;;;;;5.50;2.80;;;23.40;92.40;;;;;;5064760;28;20554;-93
2022/07/19 07:19:59;;;;;;;4.43;3.03;;;23.50;92.70;;;;;;5053160;28;20946;-92
2022/07/19 07:22:26;;;;;;;4.67;2.63;;;23.70;93.30;;;;;;5053062;28;20455;-93
2022/07/19 07:24:53;;;;;;;6.77;3.00;;;23.80;93.10;;;;;;5051572;28;20483;-93
2022/07/19 07:27:20;;;;;;;5.30;2.80;;;23.90;91.70;;;;;;5053023;28;20494;-92
2022/07/19 07:29:47;;;;;;;4.77;3.00;;;24.10;91.60;;;;;;5051646;28;20550;-92
2022/07/19 07:32:15;;;;;;;4.30;2.90;;;24.20;91.70;;;;;;5051959;28;20964;-92
2022/07/19 07:34:41;;;;;;;5.13;2.87;;;24.30;91.40;;;;;;5053284;28;20491;-93
2022/07/19 07:37:08;;;;;;;3.50;3.00;;;24.40;91.60;;;;;;5054546;28;20972;-93
2022/07/19 07:39:36;;;;;;;4.13;3.10;;;24.40;91.30;;;;;;5055875;28;20539;-94
2022/07/19 07:42:04;;;;;;;4.53;2.50;;;24.50;91.00;;;;;;5060948;28;20481;-94
2022/07/19 07:44:31;;;;;;;5.00;2.50;;;24.70;91.00;;;;;;5074476;28;20501;-94
2022/07/19 07:46:58;;;;;;;3.80;2.80;;;24.80;90.50;;;;;;5054503;28;20487;-94
2022/07/19 07:49:26;;;;;;;5.43;2.70;;;24.90;89.10;;;;;;5051895;28;20468;-93
2022/07/19 07:51:53;;;;;;;2.90;2.40;;;25.00;89.90;;;;;;5052080;28;20865;-92
2022/07/19 07:54:20;;;;;;;2.70;2.37;;;25.10;89.00;;;;;;5051528;28;20493;-93
2022/07/19 07:56:47;;;;;;;6.97;2.87;;;25.30;87.90;;;;;;5051465;28;20456;-92
2022/07/19 07:59:14;;;;;;;4.20;2.77;;;25.40;88.90;;;;;;5051644;28;20865;-92
2022/07/19 08:01:42;;;;;;;3.43;2.50;;;25.50;89.20;;;;;;5053616;28;20545;-92
2022/07/19 08:04:09;;;;;;;3.90;2.43;;;25.60;90.20;;;;;;5056885;28;20483;-93
2022/07/19 08:06:38;;;;;;;2.70;2.27;;;25.80;90.30;;;;;;5053658;28;20483;-94
2022/07/19 08:09:05;;;;;;;3.30;2.97;;;25.90;89.40;;;;;;5052262;28;20486;-93
2022/07/19 08:11:32;;;;;;;6.97;2.50;;;26.00;90.20;;;;;;5053668;28;20471;-93
2022/07/19 08:13:59;;;;;;;2.90;2.20;;;26.10;88.40;;;;;;5053063;28;20490;-93
2022/07/19 08:16:26;;;;;;;3.60;2.37;;;26.20;88.50;;;;;;5053014;28;20919;-93
2022/07/19 08:18:52;;;;;;;3.70;2.30;;;26.30;88.30;;;;;;5052621;28;20482;-93
2022/07/19 08:21:19;;;;;;;3.07;2.57;;;26.40;86.60;;;;;;5052497;28;20505;-93
2022/07/19 08:23:47;;;;;;;4.37;3.00;;;26.50;87.60;;;;;;5052902;28;20485;-93
2022/07/19 08:26:14;;;;;;;2.40;2.20;;;26.60;86.50;;;;;;5051657;28;20468;-94
2022/07/19 08:28:41;;;;;;;2.77;2.57;;;26.70;82.40;;;;;;5053147;28;20976;-94
2022/07/19 08:31:08;;;;;;;3.63;2.30;;;26.80;85.50;;;;;;5053920;28;20448;-94
2022/07/19 08:33:35;;;;;;;8.13;3.07;;;27.00;86.70;;;;;;5052595;28;20598;-94
2022/07/19 08:36:02;;;;;;;3.83;2.63;;;27.10;85.10;;;;;;5074280;22;20492;-92
2022/07/19 08:38:48;;;;;;;4.47;2.57;;;27.10;84.70;;;;;;5051903;28;20456;-91
2022/07/19 08:41:16;;;;;;;2.47;2.27;;;27.30;82.40;;;;;;5053457;28;20464;-92
2022/07/19 08:43:43;;;;;;;4.20;2.40;;;27.40;84.60;;;;;;5059892;28;20448;-94
2022/07/19 08:46:10;;;;;;;5.97;3.67;;;27.50;84.90;;;;;;5066523;28;20485;-93
2022/07/19 08:48:39;;;;;;;3.90;2.30;;;27.50;84.10;;;;;;5074136;28;20566;-95
2022/07/19 08:51:08;;;;;;;5.00;2.50;;;27.60;79.00;;;;;;5069697;28;20690;-92
2022/07/19 08:53:37;;;;;;;3.77;2.33;;;27.70;81.70;;;;;;5068547;28;20476;-93
2022/07/19 08:57:56;;;;;;;3.50;2.70;;;27.80;82.60;;;;;;5078275;28;20480;-94
2022/07/19 08:58:52;;;;;;;2.73;2.53;;;27.90;80.90;;;;;;5074095;28;20445;-92
2022/07/19 09:01:19;;;;;;;2.60;2.40;;;28.00;81.20;;;;;;5071742;28;20478;-94
2022/07/19 09:04:10;;;;;;;2.50;2.30;;;28.00;82.10;;;;;;5068872;28;20302;-92
2022/07/19 09:06:42;;;;;;;3.13;2.83;;;28.20;80.60;;;;;;5056325;28;20477;-92
2022/07/19 09:09:10;;;;;;;4.03;2.60;;;28.30;79.50;;;;;;5056507;28;20465;-91
2022/07/19 09:11:48;;;;;;;3.67;2.63;;;28.30;81.60;;;;;;5062484;28;20467;-94
2022/07/19 09:14:15;;;;;;;2.80;2.60;;;28.50;82.40;;;;;;5062143;28;20472;-92
2022/07/19 09:17:01;;;;;;;6.30;2.90;;;28.60;80.10;;;;;;5057843;28;20473;-93
2022/07/19 09:19:30;;;;;;;2.83;2.53;;;28.70;78.60;;;;;;5059982;28;20510;-93
2022/07/19 09:22:01;;;;;;;5.93;4.23;;;28.80;79.40;;;;;;5064585;28;20442;-92
2022/07/19 09:24:32;;;;;;;2.90;2.40;;;28.90;79.50;;;;;;5069229;28;20440;-92
2022/07/19 09:27:02;;;;;;;4.70;2.83;;;29.00;81.00;;;;;;5070257;28;20481;-93
2022/07/19 09:29:31;;;;;;;4.00;3.27;;;29.10;78.80;;;;;;5072464;28;20461;-94
2022/07/19 09:32:16;;;;;;;4.37;2.80;;;29.20;81.90;;;;;;5077140;28;20443;-93
2022/07/19 09:35:10;;;;;;;2.73;2.53;;;29.30;78.60;;;;;;5075801;28;20428;-94
2022/07/19 09:37:38;;;;;;;2.50;2.30;;;29.30;79.30;;;;;;5072435;28;20481;-94
2022/07/19 09:40:08;;;;;;;3.20;2.90;;;29.50;82.50;;;;;;5070738;28;20459;-94
2022/07/19 09:42:41;;;;;;;3.53;2.20;;;29.60;81.40;;;;;;5070020;28;20487;-94
2022/07/19 09:45:10;;;;;;;4.23;2.70;;;29.80;81.90;;;;;;5072453;28;20458;-93
2022/07/19 09:47:39;;;;;;;4.10;3.10;;;30.00;79.30;;;;;;5078129;28;20452;-94
2022/07/19 09:50:08;;;;;;;3.47;3.17;;;30.10;75.30;;;;;;5075227;28;20460;-91
2022/07/19 09:52:36;;;;;;;2.83;2.63;;;30.10;75.40;;;;;;5077469;28;20434;-91
2022/07/19 09:55:05;;;;;;;2.83;2.60;;;30.10;74.60;;;;;;5061471;28;21009;-91
2022/07/19 10:00:58;;;;;;;4.20;2.60;;;30.20;76.50;;;;;;4959308;28;20445;-90
2022/07/19 10:03:24;;;;;;;4.43;2.33;;;30.20;76.90;;;;;;5051632;28;20465;-90
2022/07/19 10:05:51;;;;;;;3.17;2.70;;;30.30;77.10;;;;;;5054553;28;20485;-91
2022/07/19 10:08:18;;;;;;;2.97;2.70;;;30.40;76.70;;;;;;5054057;28;20487;-90
2022/07/19 10:10:45;;;;;;;3.17;2.87;;;30.50;74.30;;;;;;5052725;28;20984;-90
2022/07/19 10:13:12;;;;;;;3.20;2.90;;;30.60;72.40;;;;;;5053864;28;20469;-91
2022/07/19 10:15:44;;;;;;;5.20;2.80;;;30.70;73.30;;;;;;5053358;28;20991;-90
2022/07/19 10:18:15;;;;;;;8.10;2.90;;;30.90;70.00;;;;;;5054497;28;20537;-91
2022/07/19 10:20:46;;;;;;;3.53;3.23;;;30.90;73.60;;;;;;5054529;28;20499;-92
2022/07/19 10:23:13;;;;;;;4.63;3.10;;;30.90;71.20;;;;;;5054398;28;20463;-91
2022/07/19 10:25:46;;;;;;;4.80;3.30;;;31.00;69.10;;;;;;5055000;28;20482;-91
2022/07/19 10:28:28;;;;;;;4.00;3.10;;;31.00;69.50;;;;;;5054088;28;20492;-90
2022/07/19 10:30:55;;;;;;;3.90;2.93;;;31.10;72.80;;;;;;5053064;28;20462;-91
2022/07/19 10:33:36;;;;;;;2.60;2.40;;;31.20;70.60;;;;;;5053632;28;20461;-90
2022/07/19 10:36:34;;;;;;;3.73;2.90;;;31.20;73.20;;;;;;5053677;28;20516;-90
2022/07/19 10:39:26;;;;;;;4.20;2.90;;;31.40;69.00;;;;;;5035839;28;20953;-91
2022/07/19 10:42:14;;;;;;;4.47;3.03;;;31.40;73.50;;;;;;5037577;28;20466;-91
2022/07/19 10:45:14;;;;;;;3.73;3.03;;;31.60;72.50;;;;;;5035863;28;20513;-90
2022/07/19 10:48:01;;;;;;;5.97;3.40;;;31.60;71.90;;;;;;5034707;28;20488;-91
2022/07/19 10:54:00;;;;;;;3.40;3.10;;;31.80;74.40;;;;;;5088268;27;20532;-74
2022/07/19 10:56:34;;;;;;;3.97;2.75;;;31.90;71.60;;;;;;5071117;28;20553;-73
2022/07/19 10:59:02;;;;;;;3.03;2.70;;;32.00;69.20;;;;;;5067917;28;20247;-73
2022/07/19 11:01:32;;;;;;;4.07;3.10;;;32.00;69.20;;;;;;5067795;28;20456;-74
2022/07/19 11:04:28;;;;;;;3.10;2.80;;;32.00;70.90;;;;;;5067622;28;20463;-73
2022/07/19 11:07:10;;;;;;;3.30;3.00;;;32.10;71.00;;;;;;5067346;28;20570;-73
2022/07/19 11:09:41;;;;;;;7.57;3.30;;;32.20;71.10;;;;;;5066619;28;20470;-73
2022/07/19 11:12:39;;;;;;;4.50;3.57;;;32.30;72.00;;;;;;5067945;28;20997;-73
2022/07/19 11:15:09;;;;;;;2.87;2.60;;;32.30;67.60;;;;;;5068192;28;20471;-74
2022/07/19 11:17:36;;;;;;;3.13;2.77;;;32.30;69.10;;;;;;5064221;28;20470;-75
2022/07/19 11:20:08;;;;;;;4.67;3.23;;;32.50;69.00;;;;;;5067000;28;20875;-72
2022/07/19 11:22:36;;;;;;;5.20;3.40;;;32.50;68.90;;;;;;5068451;28;20829;-74
2022/07/19 11:25:04;;;;;;;5.10;3.27;;;32.60;67.70;;;;;;5067748;28;20479;-73
2022/07/19 11:27:33;;;;;;;5.17;3.33;;;32.70;67.80;;;;;;5067064;28;20459;-71
2022/07/19 11:30:02;;;;;;;3.43;3.13;;;32.70;68.80;;;;;;5066117;28;20954;-72
2022/07/19 11:32:28;;;;;;;2.83;2.60;;;32.60;68.00;;;;;;5066850;28;20479;-73
2022/07/19 11:34:56;;;;;;;2.90;2.70;;;32.60;67.50;;;;;;5066266;28;20578;-74
2022/07/19 11:37:25;;;;;;;4.70;3.10;;;32.60;67.10;;;;;;5066586;28;20466;-74
2022/07/19 11:39:52;;;;;;;4.73;2.97;;;32.70;68.50;;;;;;5066127;28;20463;-74
2022/07/19 11:42:33;;;;;;;4.27;3.10;;;32.70;71.40;;;;;;5066967;28;20469;-74
2022/07/19 11:45:00;;;;;;;3.20;2.90;;;32.80;70.00;;;;;;5066026;28;20479;-74
2022/07/19 11:47:27;;;;;;;4.27;3.30;;;32.90;71.90;;;;;;5066635;28;20486;-74
2022/07/19 11:49:53;;;;;;;3.57;3.23;;;33.00;69.60;;;;;;5066172;28;20466;-74
2022/07/19 11:52:20;;;;;;;3.10;2.80;;;33.20;71.30;;;;;;5066463;28;20491;-74
2022/07/19 11:55:00;;;;;;;3.88;3.10;;;33.20;70.60;;;;;;5067334;28;20478;-74
2022/07/19 11:57:28;;;;;;;3.50;3.03;;;33.30;69.20;;;;;;5066854;28;20246;-72
2022/07/19 11:59:57;;;;;;;3.87;2.93;;;33.20;70.70;;;;;;5065083;28;20463;-72
2022/07/19 12:02:24;;;;;;;3.22;2.90;;;33.20;69.10;;;;;;5066722;28;20454;-75
2022/07/19 12:04:51;;;;;;;3.80;3.37;;;33.30;70.20;;;;;;5053451;28;20227;-74
2022/07/19 12:07:19;;;;;;;5.00;2.87;;;33.30;66.60;;;;;;5053064;28;20467;-72
2022/07/19 12:09:46;;;;;;;2.90;2.70;;;33.40;67.10;;;;;;5052673;28;20505;-71
2022/07/19 12:12:14;;;;;;;3.30;2.80;;;33.40;69.20;;;;;;5053012;28;20486;-71
2022/07/19 12:14:41;;;;;;;4.10;3.20;;;33.50;70.30;;;;;;5052451;28;20456;-71
2022/07/19 12:17:14;;;;;;;3.57;3.20;;;33.60;70.40;;;;;;5053389;28;20466;-71
2022/07/19 12:19:44;;;;;;;4.00;3.07;;;33.70;68.60;;;;;;5051842;28;20489;-72
2022/07/19 12:22:28;;;;;;;5.30;3.30;;;33.60;67.80;;;;;;5054154;28;20455;-72
2022/07/19 12:24:55;;;;;;;3.27;2.97;;;33.50;67.50;;;;;;5053239;28;20315;-72
2022/07/19 12:27:27;;;;;;;3.83;3.53;;;33.50;68.20;;;;;;5054079;28;20456;-72
2022/07/19 12:29:54;;;;;;;3.50;3.17;;;33.50;70.70;;;;;;5055032;28;21011;-72
2022/07/19 12:32:30;;;;;;;6.93;3.73;;;33.60;68.30;;;;;;5054776;28;20488;-72
2022/07/19 12:34:59;;;;;;;3.50;3.20;;;33.70;69.90;;;;;;5054954;28;20485;-73
2022/07/19 12:37:27;;;;;;;4.80;3.40;;;33.80;68.90;;;;;;5053340;28;20483;-71
2022/07/19 12:40:06;;;;;;;4.53;3.50;;;33.80;67.20;;;;;;5051748;28;20468;-70
2022/07/19 12:42:38;;;;;;;3.70;3.30;;;33.80;70.20;;;;;;5054104;28;20820;-74
2022/07/19 12:45:07;;;;;;;3.93;3.27;;;34.00;68.60;;;;;;5052503;28;20487;-73
2022/07/19 12:47:35;;;;;;;5.17;3.10;;;34.10;67.40;;;;;;5052571;28;20462;-74
2022/07/19 12:50:03;;;;;;;3.97;2.80;;;34.10;68.10;;;;;;5050858;28;20872;-72
2022/07/19 12:52:29;;;;;;;4.20;3.40;;;34.20;67.60;;;;;;5052398;28;20492;-73
2022/07/19 12:54:56;;;;;;;5.13;3.90;;;34.20;70.50;;;;;;5051225;28;20990;-73
2022/07/19 12:57:23;;;;;;;4.40;3.40;;;34.30;68.00;;;;;;5052034;28;20471;-72
2022/07/19 12:59:49;;;;;;;3.17;2.87;;;34.30;66.50;;;;;;5053853;28;20467;-73
2022/07/19 13:02:18;;;;;;;4.50;2.90;;;34.40;70.90;;;;;;5052386;28;20574;-73
2022/07/19 13:04:46;;;;;;;3.37;3.07;;;34.40;69.90;;;;;;5052553;28;20471;-74
2022/07/19 13:07:14;;;;;;;5.33;3.83;;;34.50;66.60;;;;;;5052647;28;20463;-72
2022/07/19 13:09:41;;;;;;;6.37;3.53;;;34.50;66.40;;;;;;5051502;28;20845;-73
2022/07/19 13:12:09;;;;;;;5.20;3.17;;;34.50;69.10;;;;;;5051928;28;20521;-72
2022/07/19 13:14:37;;;;;;;4.03;3.27;;;34.40;68.20;;;;;;5050546;28;20202;-72
2022/07/19 13:17:04;;;;;;;3.45;3.15;;;34.50;69.90;;;;;;5052150;28;20471;-72
2022/07/19 13:19:31;;;;;;;4.33;3.60;;;34.60;67.10;;;;;;5050433;28;20707;-73